sensor_id;sensor_type;location;lat;lon;timestamp;pressure;altitude;pressure_sealevel;temperature;humidity
7182;BME280;3632;42.724;23.298;2024-01-10T00:00:01;96492.34;;;-3.63;80.14
7182;BME280;3632;42.724;23.298;2024-01-10T00:02:29;96111.72;;;-6.05;78.53
7182;BME280;3632;42.724;23.298;2024-01-10T00:04:56;96493.91;;;-3.41;78.00
7182;BME280;3632;42.724;23.298;2024-01-10T00:07:24;96490.72;;;-3.74;79.09
7182;BME280;3632;42.724;23.298;2024-01-10T00:09:51;96489.97;;;-3.91;80.46
7182;BME280;3632;42.724;23.298;2024-01-10T00:12:17;96441.94;;;-4.43;80.47
7182;BME280;3632;42.724;23.298;2024-01-10T00:14:44;96492.28;;;-3.51;79.56
7182;BME280;3632;42.724;23.298;2024-01-10T00:17:11;96488.25;;;-3.81;80.63
7182;BME280;3632;42.724;23.298;2024-01-10T00:19:38;96494.88;;;-3.70;80.47
7182;BME280;3632;42.724;23.298;2024-01-10T00:22:05;96500.66;;;-3.61;78.99
7182;BME280;3632;42.724;23.298;2024-01-10T00:24:33;95911.81;;;-7.11;79.09
7182;BME280;3632;42.724;23.298;2024-01-10T00:27:00;96500.66;;;-3.61;79.29
7182;BME280;3632;42.724;23.298;2024-01-10T00:29:26;96498.09;;;-3.45;79.11
7182;BME280;3632;42.724;23.298;2024-01-10T00:31:53;96441.81;;;-3.91;78.98
7182;BME280;3632;42.724;23.298;2024-01-10T00:34:24;96419.53;;;-4.35;78.61
7182;BME280;3632;42.724;23.298;2024-01-10T00:36:52;96504.78;;;-3.59;78.19
7182;BME280;3632;42.724;23.298;2024-01-10T00:39:18;96498.06;;;-3.43;77.73
7182;BME280;3632;42.724;23.298;2024-01-10T00:41:47;96509.66;;;-3.35;76.96
7182;BME280;3632;42.724;23.298;2024-01-10T00:44:13;95763.28;;;-8.12;77.41
7182;BME280;3632;42.724;23.298;2024-01-10T00:46:40;96508.81;;;-3.29;77.50
7182;BME280;3632;42.724;23.298;2024-01-10T00:49:07;96429.13;;;-3.44;77.09
7182;BME280;3632;42.724;23.298;2024-01-10T00:51:34;96504.44;;;-2.92;76.01
7182;BME280;3632;42.724;23.298;2024-01-10T00:54:00;96413.41;;;-3.55;76.47
7182;BME280;3632;42.724;23.298;2024-01-10T00:56:27;96506.88;;;-2.80;76.13
7182;BME280;3632;42.724;23.298;2024-01-10T00:58:55;96502.84;;;-3.05;75.08
7182;BME280;3632;42.724;23.298;2024-01-10T01:01:23;96492.88;;;-3.04;75.09
7182;BME280;3632;42.724;23.298;2024-01-10T01:03:50;96508.44;;;-2.68;74.97
7182;BME280;3632;42.724;23.298;2024-01-10T01:06:17;96497.06;;;-3.13;75.32
7182;BME280;3632;42.724;23.298;2024-01-10T01:08:43;96499.66;;;-3.29;76.35
7182;BME280;3632;42.724;23.298;2024-01-10T01:11:10;95948.09;;;-6.57;75.98
7182;BME280;3632;42.724;23.298;2024-01-10T01:13:39;96502.03;;;-3.01;75.42
7182;BME280;3632;42.724;23.298;2024-01-10T01:16:07;96504.59;;;-3.16;74.29
7182;BME280;3632;42.724;23.298;2024-01-10T01:18:34;96500.53;;;-3.39;75.18
7182;BME280;3632;42.724;23.298;2024-01-10T01:21:01;96504.69;;;-3.36;77.36
7182;BME280;3632;42.724;23.298;2024-01-10T01:23:28;96664.16;;;-3.26;76.66
7182;BME280;3632;42.724;23.298;2024-01-10T01:25:55;96496.31;;;-3.25;75.69
7182;BME280;3632;42.724;23.298;2024-01-10T01:28:21;96498.00;;;-3.30;75.61
7182;BME280;3632;42.724;23.298;2024-01-10T01:30:48;96547.13;;;-3.54;74.85
7182;BME280;3632;42.724;23.298;2024-01-10T01:33:16;96266.97;;;-4.54;74.51
7182;BME280;3632;42.724;23.298;2024-01-10T01:35:43;96493.78;;;-3.15;74.40
7182;BME280;3632;42.724;23.298;2024-01-10T01:38:10;96524.38;;;-2.92;73.11
7182;BME280;3632;42.724;23.298;2024-01-10T01:40:36;96481.94;;;-2.88;73.08
7182;BME280;3632;42.724;23.298;2024-01-10T01:43:18;96485.38;;;-3.04;73.00
7182;BME280;3632;42.724;23.298;2024-01-10T01:45:44;96394.25;;;-3.46;72.47
7182;BME280;3632;42.724;23.298;2024-01-10T01:48:11;96487.19;;;-3.22;73.22
7182;BME280;3632;42.724;23.298;2024-01-10T01:50:40;96497.06;;;-3.12;73.56
7182;BME280;3632;42.724;23.298;2024-01-10T01:53:07;95920.91;;;-6.96;72.08
7182;BME280;3632;42.724;23.298;2024-01-10T01:55:34;96488.75;;;-3.14;71.53
7182;BME280;3632;42.724;23.298;2024-01-10T01:58:02;96482.22;;;-3.35;72.27
7182;BME280;3632;42.724;23.298;2024-01-10T02:00:29;96480.56;;;-3.28;72.60
7182;BME280;3632;42.724;23.298;2024-01-10T02:02:58;96470.41;;;-3.01;72.11
7182;BME280;3632;42.724;23.298;2024-01-10T02:05:25;96464.63;;;-3.07;72.38
7182;BME280;3632;42.724;23.298;2024-01-10T02:07:53;96470.56;;;-3.25;71.22
7182;BME280;3632;42.724;23.298;2024-01-10T02:10:21;96402.00;;;-4.00;71.65
7182;BME280;3632;42.724;23.298;2024-01-10T02:12:48;96458.09;;;-3.25;72.15
7182;BME280;3632;42.724;23.298;2024-01-10T02:15:15;96465.69;;;-3.46;71.78
7182;BME280;3632;42.724;23.298;2024-01-10T02:17:43;96469.88;;;-3.56;71.63
7182;BME280;3632;42.724;23.298;2024-01-10T02:20:10;96387.78;;;-3.79;70.02
7182;BME280;3632;42.724;23.298;2024-01-10T02:22:37;96482.31;;;-3.50;71.29
7182;BME280;3632;42.724;23.298;2024-01-10T02:25:06;96466.31;;;-3.12;70.99
7182;BME280;3632;42.724;23.298;2024-01-10T02:27:34;96330.78;;;-4.35;69.27
7182;BME280;3632;42.724;23.298;2024-01-10T02:30:02;96458.31;;;-3.66;69.91
7182;BME280;3632;42.724;23.298;2024-01-10T02:32:29;96465.72;;;-3.54;70.27
7182;BME280;3632;42.724;23.298;2024-01-10T02:34:56;96458.34;;;-3.75;70.12
7182;BME280;3632;42.724;23.298;2024-01-10T02:37:23;96035.69;;;-6.20;69.44
7182;BME280;3632;42.724;23.298;2024-01-10T02:39:50;96468.13;;;-3.33;69.35
7182;BME280;3632;42.724;23.298;2024-01-10T02:42:18;96468.06;;;-3.27;68.84
7182;BME280;3632;42.724;23.298;2024-01-10T02:44:45;96464.16;;;-3.75;68.94
7182;BME280;3632;42.724;23.298;2024-01-10T02:47:12;96383.81;;;-4.18;69.47
7182;BME280;3632;42.724;23.298;2024-01-10T02:49:38;96347.31;;;-4.19;69.32
7182;BME280;3632;42.724;23.298;2024-01-10T02:52:05;96463.38;;;-3.89;67.99
7182;BME280;3632;42.724;23.298;2024-01-10T02:54:32;96518.91;;;-3.69;68.84
7182;BME280;3632;42.724;23.298;2024-01-10T02:56:59;96467.38;;;-3.48;68.55
7182;BME280;3632;42.724;23.298;2024-01-10T02:59:27;96464.91;;;-3.57;69.48
7182;BME280;3632;42.724;23.298;2024-01-10T03:01:54;96470.63;;;-3.37;70.04
7182;BME280;3632;42.724;23.298;2024-01-10T03:04:20;96460.69;;;-3.48;69.34
7182;BME280;3632;42.724;23.298;2024-01-10T03:06:47;96462.38;;;-3.50;70.05
7182;BME280;3632;42.724;23.298;2024-01-10T03:09:14;96409.56;;;-4.25;69.24
7182;BME280;3632;42.724;23.298;2024-01-10T03:11:41;96215.81;;;-5.17;69.57
7182;BME280;3632;42.724;23.298;2024-01-10T03:14:08;96258.06;;;-5.11;69.98
7182;BME280;3632;42.724;23.298;2024-01-10T03:16:37;95691.53;;;-8.71;69.89
7182;BME280;3632;42.724;23.298;2024-01-10T03:19:04;96476.66;;;-3.94;70.51
7182;BME280;3632;42.724;23.298;2024-01-10T03:21:31;96465.06;;;-3.95;71.11
7182;BME280;3632;42.724;23.298;2024-01-10T03:23:59;96474.91;;;-3.68;71.08
7182;BME280;3632;42.724;23.298;2024-01-10T03:26:26;96477.41;;;-3.68;70.15
7182;BME280;3632;42.724;23.298;2024-01-10T03:28:53;96478.25;;;-3.66;71.39
7182;BME280;3632;42.724;23.298;2024-01-10T03:31:20;96472.22;;;-3.22;70.08
7182;BME280;3632;42.724;23.298;2024-01-10T03:33:48;96476.38;;;-3.25;69.17
7182;BME280;3632;42.724;23.298;2024-01-10T03:36:16;95975.38;;;-6.82;69.05
7182;BME280;3632;42.724;23.298;2024-01-10T03:38:44;96480.72;;;-3.63;70.05
7182;BME280;3632;42.724;23.298;2024-01-10T03:41:13;96463.31;;;-3.75;71.54
7182;BME280;3632;42.724;23.298;2024-01-10T03:43:40;96397.81;;;-3.98;71.16
7182;BME280;3632;42.724;23.298;2024-01-10T03:46:07;96454.94;;;-3.53;70.43
7182;BME280;3632;42.724;23.298;2024-01-10T03:48:34;95658.56;;;-7.79;69.54
7182;BME280;3632;42.724;23.298;2024-01-10T03:51:03;96372.66;;;-3.45;68.51
7182;BME280;3632;42.724;23.298;2024-01-10T03:53:30;96501.91;;;-2.86;67.31
7182;BME280;3632;42.724;23.298;2024-01-10T03:55:56;96266.41;;;-5.62;67.69
7182;BME280;3632;42.724;23.298;2024-01-10T03:58:23;96480.47;;;-3.14;68.85
7182;BME280;3632;42.724;23.298;2024-01-10T04:00:50;96479.47;;;-2.86;69.03
7182;BME280;3632;42.724;23.298;2024-01-10T04:03:17;96474.59;;;-3.03;68.97
7182;BME280;3632;42.724;23.298;2024-01-10T04:05:44;96545.16;;;-2.86;69.29
7182;BME280;3632;42.724;23.298;2024-01-10T04:08:12;96478.78;;;-3.11;68.20
7182;BME280;3632;42.724;23.298;2024-01-10T04:10:39;96441.47;;;-3.25;68.37
7182;BME280;3632;42.724;23.298;2024-01-10T04:13:05;96472.75;;;-2.78;67.60
7182;BME280;3632;42.724;23.298;2024-01-10T04:15:32;96473.34;;;-2.50;67.09
7182;BME280;3632;42.724;23.298;2024-01-10T04:18:00;95911.78;;;-6.73;67.70
7182;BME280;3632;42.724;23.298;2024-01-10T04:20:26;96427.28;;;-3.15;68.51
7182;BME280;3632;42.724;23.298;2024-01-10T04:22:53;96490.25;;;-2.87;68.11
7182;BME280;3632;42.724;23.298;2024-01-10T04:25:21;96486.00;;;-2.70;66.88
7182;BME280;3632;42.724;23.298;2024-01-10T04:27:48;96498.75;;;-3.11;67.67
7182;BME280;3632;42.724;23.298;2024-01-10T04:30:15;96501.25;;;-3.15;68.07
7182;BME280;3632;42.724;23.298;2024-01-10T04:32:42;96369.44;;;-3.62;67.48
7182;BME280;3632;42.724;23.298;2024-01-10T04:35:09;96009.22;;;-6.34;67.27
7182;BME280;3632;42.724;23.298;2024-01-10T04:37:36;96505.25;;;-2.90;67.23
7182;BME280;3632;42.724;23.298;2024-01-10T04:40:04;96535.22;;;-2.95;67.10
7182;BME280;3632;42.724;23.298;2024-01-10T04:42:32;96417.59;;;-3.63;65.58
7182;BME280;3632;42.724;23.298;2024-01-10T04:44:59;96516.31;;;-3.34;67.07
7182;BME280;3632;42.724;23.298;2024-01-10T04:47:25;96521.22;;;-3.22;67.16
7182;BME280;3632;42.724;23.298;2024-01-10T04:49:52;96510.28;;;-2.93;67.75
7182;BME280;3632;42.724;23.298;2024-01-10T04:52:19;96406.53;;;-3.22;66.36
7182;BME280;3632;42.724;23.298;2024-01-10T04:54:45;96220.03;;;-5.48;64.44
7182;BME280;3632;42.724;23.298;2024-01-10T04:57:12;96517.53;;;-2.60;63.65
7182;BME280;3632;42.724;23.298;2024-01-10T04:59:40;96520.16;;;-2.81;64.22
7182;BME280;3632;42.724;23.298;2024-01-10T05:02:07;96498.47;;;-2.68;64.33
7182;BME280;3632;42.724;23.298;2024-01-10T05:04:34;96400.69;;;-3.16;63.61
7182;BME280;3632;42.724;23.298;2024-01-10T05:07:01;96541.28;;;-2.15;61.78
7182;BME280;3632;42.724;23.298;2024-01-10T05:09:27;96403.78;;;-2.85;60.63
7182;BME280;3632;42.724;23.298;2024-01-10T05:11:54;96521.19;;;-2.01;59.73
7182;BME280;3632;42.724;23.298;2024-01-10T05:14:21;96363.19;;;-3.02;60.07
7182;BME280;3632;42.724;23.298;2024-01-10T05:16:49;96512.31;;;-2.31;60.55
7182;BME280;3632;42.724;23.298;2024-01-10T05:19:17;95898.25;;;-5.88;60.07
7182;BME280;3632;42.724;23.298;2024-01-10T05:21:43;96691.84;;;-1.99;59.45
7182;BME280;3632;42.724;23.298;2024-01-10T05:24:10;96465.25;;;-2.78;59.13
7182;BME280;3632;42.724;23.298;2024-01-10T05:26:38;96452.34;;;-3.32;60.77
7182;BME280;3632;42.724;23.298;2024-01-10T05:29:04;96524.34;;;-2.83;61.31
7182;BME280;3632;42.724;23.298;2024-01-10T05:31:31;96531.88;;;-2.92;60.80
7182;BME280;3632;42.724;23.298;2024-01-10T05:33:59;96206.78;;;-5.41;61.83
7182;BME280;3632;42.724;23.298;2024-01-10T05:36:26;96538.81;;;-3.50;62.22
7182;BME280;3632;42.724;23.298;2024-01-10T05:38:53;96523.94;;;-3.81;62.97
7182;BME280;3632;42.724;23.298;2024-01-10T05:41:19;96422.78;;;-4.12;63.39
7182;BME280;3632;42.724;23.298;2024-01-10T05:43:46;96543.72;;;-3.32;61.79
7182;BME280;3632;42.724;23.298;2024-01-10T05:46:13;96540.41;;;-3.39;62.70
7182;BME280;3632;42.724;23.298;2024-01-10T05:48:41;96542.75;;;-3.05;60.76
7182;BME280;3632;42.724;23.298;2024-01-10T05:51:09;96535.88;;;-2.70;60.29
7182;BME280;3632;42.724;23.298;2024-01-10T05:53:37;96536.56;;;-2.48;59.94
7182;BME280;3632;42.724;23.298;2024-01-10T05:56:06;96538.97;;;-2.36;60.00
7182;BME280;3632;42.724;23.298;2024-01-10T05:58:33;96540.72;;;-2.49;59.26
7182;BME280;3632;42.724;23.298;2024-01-10T06:00:59;95787.97;;;-7.05;58.98
7182;BME280;3632;42.724;23.298;2024-01-10T06:03:26;96456.41;;;-3.22;59.10
7182;BME280;3632;42.724;23.298;2024-01-10T06:05:53;96580.50;;;-2.27;59.55
7182;BME280;3632;42.724;23.298;2024-01-10T06:08:21;96557.06;;;-2.11;58.67
7182;BME280;3632;42.724;23.298;2024-01-10T06:10:51;96504.16;;;-2.53;58.08
7182;BME280;3632;42.724;23.298;2024-01-10T06:13:18;96544.53;;;-2.07;57.20
7182;BME280;3632;42.724;23.298;2024-01-10T06:15:44;96500.06;;;-2.61;57.13
7182;BME280;3632;42.724;23.298;2024-01-10T06:18:11;96320.38;;;-3.53;57.14
7182;BME280;3632;42.724;23.298;2024-01-10T06:20:38;96557.78;;;-1.99;57.41
7182;BME280;3632;42.724;23.298;2024-01-10T06:23:05;96556.94;;;-1.98;57.90
7182;BME280;3632;42.724;23.298;2024-01-10T06:25:33;96337.66;;;-3.30;57.23
7182;BME280;3632;42.724;23.298;2024-01-10T06:28:00;96574.44;;;-1.96;56.72
7182;BME280;3632;42.724;23.298;2024-01-10T06:30:26;96568.56;;;-1.95;56.96
7182;BME280;3632;42.724;23.298;2024-01-10T06:32:53;96590.88;;;-2.85;57.24
7182;BME280;3632;42.724;23.298;2024-01-10T06:35:20;96516.38;;;-3.49;58.33
7182;BME280;3632;42.724;23.298;2024-01-10T06:37:47;96582.34;;;-2.48;56.42
7182;BME280;3632;42.724;23.298;2024-01-10T06:40:14;96406.13;;;-3.96;58.46
7182;BME280;3632;42.724;23.298;2024-01-10T06:42:43;96480.75;;;-3.71;58.79
7182;BME280;3632;42.724;23.298;2024-01-10T06:45:10;96582.03;;;-3.57;58.99
7182;BME280;3632;42.724;23.298;2024-01-10T06:47:37;96595.94;;;-2.97;58.29
7182;BME280;3632;42.724;23.298;2024-01-10T06:50:05;96457.66;;;-4.17;57.66
7182;BME280;3632;42.724;23.298;2024-01-10T06:52:34;96563.75;;;-3.58;59.07
7182;BME280;3632;42.724;23.298;2024-01-10T06:55:01;96354.03;;;-6.13;59.36
7182;BME280;3632;42.724;23.298;2024-01-10T06:57:29;96601.91;;;-3.36;58.89
7182;BME280;3632;42.724;23.298;2024-01-10T06:59:57;96601.03;;;-3.31;59.23
7182;BME280;3632;42.724;23.298;2024-01-10T07:02:24;96346.69;;;-4.89;59.29
7182;BME280;3632;42.724;23.298;2024-01-10T07:04:51;96581.09;;;-3.35;59.79
7182;BME280;3632;42.724;23.298;2024-01-10T07:07:17;96607.59;;;-3.04;59.02
7182;BME280;3632;42.724;23.298;2024-01-10T07:09:44;96610.84;;;-2.91;58.01
7182;BME280;3632;42.724;23.298;2024-01-10T07:12:11;96608.25;;;-2.70;59.17
7182;BME280;3632;42.724;23.298;2024-01-10T07:14:37;96603.84;;;-2.33;58.12
7182;BME280;3632;42.724;23.298;2024-01-10T07:17:07;96251.91;;;-4.18;57.20
7182;BME280;3632;42.724;23.298;2024-01-10T07:19:34;96605.97;;;-1.83;57.46
7182;BME280;3632;42.724;23.298;2024-01-10T07:22:01;96547.03;;;-2.05;57.73
7182;BME280;3632;42.724;23.298;2024-01-10T07:24:28;96608.16;;;-1.50;57.33
7182;BME280;3632;42.724;23.298;2024-01-10T07:26:54;96605.59;;;-1.45;57.33
7182;BME280;3632;42.724;23.298;2024-01-10T07:29:22;96617.28;;;-1.47;57.42
7182;BME280;3632;42.724;23.298;2024-01-10T07:31:49;96610.84;;;-1.72;58.10
7182;BME280;3632;42.724;23.298;2024-01-10T07:34:19;96619.81;;;-1.52;58.03
7182;BME280;3632;42.724;23.298;2024-01-10T07:36:47;96637.31;;;-1.52;58.63
7182;BME280;3632;42.724;23.298;2024-01-10T07:39:14;96624.59;;;-1.30;58.00
7182;BME280;3632;42.724;23.298;2024-01-10T07:41:43;96630.25;;;-1.12;57.26
7182;BME280;3632;42.724;23.298;2024-01-10T07:44:10;96626.56;;;-1.60;58.71
7182;BME280;3632;42.724;23.298;2024-01-10T07:46:37;96646.31;;;-1.35;58.96
7182;BME280;3632;42.724;23.298;2024-01-10T07:49:04;96623.38;;;-0.95;58.46
7182;BME280;3632;42.724;23.298;2024-01-10T07:51:33;96683.00;;;-1.34;57.08
7182;BME280;3632;42.724;23.298;2024-01-10T07:54:00;96628.00;;;-0.64;56.38
7182;BME280;3632;42.724;23.298;2024-01-10T07:56:27;96627.84;;;-0.52;56.36
7182;BME280;3632;42.724;23.298;2024-01-10T07:58:55;96630.25;;;-1.12;58.57
7182;BME280;3632;42.724;23.298;2024-01-10T08:01:22;96619.63;;;-0.63;57.01
7182;BME280;3632;42.724;23.298;2024-01-10T08:03:48;96489.44;;;-1.21;55.89
7182;BME280;3632;42.724;23.298;2024-01-10T08:06:15;96569.53;;;-0.62;56.61
7182;BME280;3632;42.724;23.298;2024-01-10T08:08:43;96619.50;;;0.04;54.73
7182;BME280;3632;42.724;23.298;2024-01-10T08:11:10;96680.75;;;-0.15;54.16
7182;BME280;3632;42.724;23.298;2024-01-10T08:13:37;96618.16;;;-0.18;54.21
7182;BME280;3632;42.724;23.298;2024-01-10T08:16:04;96530.88;;;-0.42;53.84
7182;BME280;3632;42.724;23.298;2024-01-10T08:18:34;96618.16;;;0.34;52.13
7182;BME280;3632;42.724;23.298;2024-01-10T08:21:00;96629.78;;;-0.14;51.64
7182;BME280;3632;42.724;23.298;2024-01-10T08:23:29;96784.50;;;-0.30;53.06
7182;BME280;3632;42.724;23.298;2024-01-10T08:25:57;96618.63;;;0.07;51.78
7182;BME280;3632;42.724;23.298;2024-01-10T08:28:24;96624.41;;;0.10;51.70
7182;BME280;3632;42.724;23.298;2024-01-10T08:30:52;96563.31;;;-1.66;52.14
7182;BME280;3632;42.724;23.298;2024-01-10T08:33:19;96625.69;;;0.34;51.98
7182;BME280;3632;42.724;23.298;2024-01-10T08:35:46;96624.56;;;0.50;51.34
7182;BME280;3632;42.724;23.298;2024-01-10T08:38:13;96629.75;;;-0.11;50.55
7182;BME280;3632;42.724;23.298;2024-01-10T08:40:40;96511.47;;;-0.31;51.23
7182;BME280;3632;42.724;23.298;2024-01-10T08:43:08;96498.59;;;-0.09;47.55
7182;BME280;3632;42.724;23.298;2024-01-10T08:45:34;96456.69;;;-0.02;47.33
7182;BME280;3632;42.724;23.298;2024-01-10T08:48:01;96620.91;;;1.52;47.03
7182;BME280;3632;42.724;23.298;2024-01-10T08:50:28;96633.44;;;1.12;46.57
7182;BME280;3632;42.724;23.298;2024-01-10T08:52:55;96628.94;;;0.85;47.38
7182;BME280;3632;42.724;23.298;2024-01-10T08:55:21;96723.81;;;1.57;48.25
7182;BME280;3632;42.724;23.298;2024-01-10T08:57:48;96506.00;;;0.42;46.54
7182;BME280;3632;42.724;23.298;2024-01-10T09:00:17;96606.19;;;1.74;46.41
7182;BME280;3632;42.724;23.298;2024-01-10T09:02:44;96618.13;;;2.00;45.21
7182;BME280;3632;42.724;23.298;2024-01-10T09:05:10;96614.00;;;2.65;44.57
7182;BME280;3632;42.724;23.298;2024-01-10T09:07:37;96605.59;;;1.98;45.07
7182;BME280;3632;42.724;23.298;2024-01-10T09:10:05;96651.94;;;2.23;42.97
7182;BME280;3632;42.724;23.298;2024-01-10T09:12:33;96609.47;;;1.76;43.90
7182;BME280;3632;42.724;23.298;2024-01-10T09:15:00;96566.47;;;2.22;42.96
7182;BME280;3632;42.724;23.298;2024-01-10T09:17:28;96604.78;;;3.26;41.94
7182;BME280;3632;42.724;23.298;2024-01-10T09:19:54;96609.50;;;3.36;41.23
7182;BME280;3632;42.724;23.298;2024-01-10T09:22:21;96047.81;;;-0.19;39.91
7182;BME280;3632;42.724;23.298;2024-01-10T09:24:48;96469.34;;;3.06;40.54
7182;BME280;3632;42.724;23.298;2024-01-10T09:27:15;96590.66;;;3.77;40.44
7182;BME280;3632;42.724;23.298;2024-01-10T09:29:41;96487.06;;;3.31;41.23
7182;BME280;3632;42.724;23.298;2024-01-10T09:32:08;96590.72;;;4.02;41.43
7182;BME280;3632;42.724;23.298;2024-01-10T09:34:36;96543.63;;;4.02;41.12
7182;BME280;3632;42.724;23.298;2024-01-10T09:37:03;96225.56;;;1.84;40.04
7182;BME280;3632;42.724;23.298;2024-01-10T09:39:30;96077.50;;;0.93;40.70
7182;BME280;3632;42.724;23.298;2024-01-10T09:41:58;96576.50;;;4.98;40.05
7182;BME280;3632;42.724;23.298;2024-01-10T09:44:24;96583.06;;;5.04;39.99
7182;BME280;3632;42.724;23.298;2024-01-10T09:46:52;96530.00;;;5.47;39.41
7182;BME280;3632;42.724;23.298;2024-01-10T09:49:20;96412.94;;;5.03;38.51
7182;BME280;3632;42.724;23.298;2024-01-10T09:51:49;96491.38;;;5.22;37.64
7182;BME280;3632;42.724;23.298;2024-01-10T09:54:16;96451.81;;;5.85;37.12
7182;BME280;3632;42.724;23.298;2024-01-10T09:56:45;96566.06;;;6.38;37.49
7182;BME280;3632;42.724;23.298;2024-01-10T09:59:12;96514.50;;;5.13;37.63
7182;BME280;3632;42.724;23.298;2024-01-10T10:01:38;96569.56;;;5.72;37.67
7182;BME280;3632;42.724;23.298;2024-01-10T10:04:07;96377.78;;;5.39;37.56
7182;BME280;3632;42.724;23.298;2024-01-10T10:06:35;96439.28;;;5.82;37.46
7182;BME280;3632;42.724;23.298;2024-01-10T10:09:04;96504.78;;;6.89;37.38
7182;BME280;3632;42.724;23.298;2024-01-10T10:11:31;96538.44;;;7.66;36.79
7182;BME280;3632;42.724;23.298;2024-01-10T10:14:13;96541.78;;;8.19;35.47
7182;BME280;3632;42.724;23.298;2024-01-10T10:16:40;96535.44;;;8.28;35.02
7182;BME280;3632;42.724;23.298;2024-01-10T10:19:06;96531.91;;;7.06;35.81
7182;BME280;3632;42.724;23.298;2024-01-10T10:21:35;96584.50;;;6.00;36.33
7182;BME280;3632;42.724;23.298;2024-01-10T10:24:04;96533.97;;;6.18;36.49
7182;BME280;3632;42.724;23.298;2024-01-10T10:26:32;96523.00;;;6.58;36.73
7182;BME280;3632;42.724;23.298;2024-01-10T10:29:00;96519.75;;;7.31;36.82
7182;BME280;3632;42.724;23.298;2024-01-10T10:31:27;96504.00;;;7.79;35.50
7182;BME280;3632;42.724;23.298;2024-01-10T10:33:54;96521.88;;;8.29;35.24
7182;BME280;3632;42.724;23.298;2024-01-10T10:36:21;95975.94;;;4.26;35.82
7182;BME280;3632;42.724;23.298;2024-01-10T10:38:48;96494.34;;;8.54;36.23
7182;BME280;3632;42.724;23.298;2024-01-10T10:41:18;96498.50;;;8.40;35.18
7182;BME280;3632;42.724;23.298;2024-01-10T10:43:45;96492.34;;;8.09;35.92
7182;BME280;3632;42.724;23.298;2024-01-10T10:46:12;96491.88;;;9.01;35.64
7182;BME280;3632;42.724;23.298;2024-01-10T10:48:40;96419.47;;;9.84;33.68
7182;BME280;3632;42.724;23.298;2024-01-10T10:51:09;96429.69;;;9.98;33.16
7182;BME280;3632;42.724;23.298;2024-01-10T10:53:37;96426.75;;;9.14;32.71
7182;BME280;3632;42.724;23.298;2024-01-10T10:56:05;96465.22;;;10.15;33.35
7182;BME280;3632;42.724;23.298;2024-01-10T10:58:38;96452.81;;;12.28;31.69
7182;BME280;3632;42.724;23.298;2024-01-10T11:01:06;96446.25;;;13.95;29.81
7182;BME280;3632;42.724;23.298;2024-01-10T11:03:35;96436.31;;;13.90;28.44
7182;BME280;3632;42.724;23.298;2024-01-10T11:06:03;96438.97;;;15.35;28.06
7182;BME280;3632;42.724;23.298;2024-01-10T11:08:34;96438.69;;;16.33;26.52
7182;BME280;3632;42.724;23.298;2024-01-10T11:11:04;96435.66;;;17.69;25.57
7182;BME280;3632;42.724;23.298;2024-01-10T11:13:54;96401.97;;;18.65;23.87
7182;BME280;3632;42.724;23.298;2024-01-10T11:16:41;96426.09;;;18.27;24.55
7182;BME280;3632;42.724;23.298;2024-01-10T11:22:36;96421.47;;;17.44;25.39
7182;BME280;3632;42.724;23.298;2024-01-10T11:25:06;96422.34;;;17.93;24.72
7182;BME280;3632;42.724;23.298;2024-01-10T11:27:33;96320.81;;;17.74;24.30
7182;BME280;3632;42.724;23.298;2024-01-10T11:30:01;96336.25;;;18.40;23.91
7182;BME280;3632;42.724;23.298;2024-01-10T11:32:30;96390.31;;;17.86;24.88
7182;BME280;3632;42.724;23.298;2024-01-10T11:34:58;95975.94;;;15.02;23.91
7182;BME280;3632;42.724;23.298;2024-01-10T11:37:28;96406.91;;;17.05;24.78
7182;BME280;3632;42.724;23.298;2024-01-10T11:39:55;96397.34;;;18.59;25.34
7182;BME280;3632;42.724;23.298;2024-01-10T11:42:23;96400.63;;;17.66;25.22
7182;BME280;3632;42.724;23.298;2024-01-10T11:44:50;96393.09;;;19.40;23.84
7182;BME280;3632;42.724;23.298;2024-01-10T11:47:20;96381.50;;;18.35;24.46
7182;BME280;3632;42.724;23.298;2024-01-10T11:49:55;96389.38;;;18.33;24.81
7182;BME280;3632;42.724;23.298;2024-01-10T11:52:23;96385.25;;;19.14;23.60
7182;BME280;3632;42.724;23.298;2024-01-10T11:54:50;96374.41;;;20.42;23.47
7182;BME280;3632;42.724;23.298;2024-01-10T11:57:20;96366.91;;;20.31;23.38
7182;BME280;3632;42.724;23.298;2024-01-10T11:59:50;96373.25;;;18.31;24.54
7182;BME280;3632;42.724;23.298;2024-01-10T12:02:20;96317.00;;;17.78;25.54
7182;BME280;3632;42.724;23.298;2024-01-10T12:04:46;96233.50;;;16.66;25.39
7182;BME280;3632;42.724;23.298;2024-01-10T12:07:13;96253.47;;;17.87;25.06
7182;BME280;3632;42.724;23.298;2024-01-10T12:09:40;96386.38;;;18.57;24.77
7182;BME280;3632;42.724;23.298;2024-01-10T12:12:07;96356.69;;;18.24;24.49
7182;BME280;3632;42.724;23.298;2024-01-10T12:14:34;96333.22;;;18.08;23.92
7182;BME280;3632;42.724;23.298;2024-01-10T12:17:02;96352.22;;;18.16;24.18
7182;BME280;3632;42.724;23.298;2024-01-10T12:19:31;96355.56;;;17.51;24.89
7182;BME280;3632;42.724;23.298;2024-01-10T12:21:58;96343.06;;;18.41;24.60
7182;BME280;3632;42.724;23.298;2024-01-10T12:24:27;96351.19;;;17.23;25.73
7182;BME280;3632;42.724;23.298;2024-01-10T12:26:55;96390.50;;;17.15;26.21
7182;BME280;3632;42.724;23.298;2024-01-10T12:29:22;96260.25;;;18.97;24.22
7182;BME280;3632;42.724;23.298;2024-01-10T12:31:50;96312.41;;;18.29;23.91
7182;BME280;3632;42.724;23.298;2024-01-10T12:34:17;96343.75;;;18.34;24.23
7182;BME280;3632;42.724;23.298;2024-01-10T12:36:45;96352.44;;;17.76;25.68
7182;BME280;3632;42.724;23.298;2024-01-10T12:39:13;96343.16;;;19.39;25.04
7182;BME280;3632;42.724;23.298;2024-01-10T12:41:40;96351.69;;;18.59;25.25
7182;BME280;3632;42.724;23.298;2024-01-10T12:44:07;96347.34;;;19.68;24.09
7182;BME280;3632;42.724;23.298;2024-01-10T12:46:34;96343.06;;;19.58;23.63
7182;BME280;3632;42.724;23.298;2024-01-10T12:49:03;96278.97;;;19.96;23.59
7182;BME280;3632;42.724;23.298;2024-01-10T12:51:31;96266.22;;;19.15;23.80
7182;BME280;3632;42.724;23.298;2024-01-10T12:54:00;96351.66;;;20.96;23.01
7182;BME280;3632;42.724;23.298;2024-01-10T12:56:28;96303.34;;;20.11;23.58
7182;BME280;3632;42.724;23.298;2024-01-10T12:58:54;96348.28;;;19.67;23.94
7182;BME280;3632;42.724;23.298;2024-01-10T13:01:21;96344.00;;;20.44;23.41
7182;BME280;3632;42.724;23.298;2024-01-10T13:03:49;96209.84;;;20.14;23.18
7182;BME280;3632;42.724;23.298;2024-01-10T13:06:16;96192.56;;;20.23;22.45
7182;BME280;3632;42.724;23.298;2024-01-10T13:08:44;96301.75;;;18.41;24.37
7182;BME280;3632;42.724;23.298;2024-01-10T13:11:12;96116.09;;;18.30;24.26
7182;BME280;3632;42.724;23.298;2024-01-10T13:13:40;96267.75;;;19.61;23.48
7182;BME280;3632;42.724;23.298;2024-01-10T13:16:06;96342.69;;;20.40;22.79